Pagrindinis puslapis
METAR-TAF:

METAR-TAF

Oro uostai :

Wainwright, Aliaska, Jungtinės Amerikos Valstijos

platuma: 70-38N, ilguma: 159-51W, Aukštis: 12 m

Dabartinis oras

Ataskaita buvo paskelbta 36 minutes, ne 20:53 UTC
Vėjas 3 kt iš Pietų/Pietryčių
Temperatūra 2°C
Drėgmė 75%
Slėgis 1000 hPa
Matomumas: 4.0 km
Su prošvaistėmis ne aukštis 3800 ft
Apsiniaukę ne aukštis 5000 ft
sniegas

METAR: PAWI 212053Z AUTO 16003KT 2 1/2SM -SN BKN038 OVC050 02/M02 A2952 RMK SNB30 SLP997 P0000 60000 T00171017 51004 TSNO VIA AUTODIAL

Laikas: 13:29 (21:29 UTC)


TAF: trūkstamas

Orai ataskaitas ir orų prognozės (METAR, TAF).

turimą stotys yra geltonos ir raudonos taškus žemėlapyje.

Perkelti pele per norėdami pamatyti stoties vardą.

Tada spustelėkite, norėdami matyti oro stebėjimo ir prognozės.

Norėdami pakeisti žemėlapį: spustelėkite ant žalios mygtukų su juodo kryžiaus žemyn,; žalią mygtuką su brūkšneliu, jei norite nutolinti; arba žalių rodyklių gretimoms žemėlapius.


METAR-TAF: